sensor_id;sensor_type;location;lat;lon;timestamp;temperature;humidity
59556;DHT22;45374;52.746;6.304;2023-08-12T00:00:29;18.60;99.90
59556;DHT22;45374;52.746;6.304;2023-08-12T00:02:55;18.60;99.90
59556;DHT22;45374;52.746;6.304;2023-08-12T00:05:21;18.60;99.90
59556;DHT22;45374;52.746;6.304;2023-08-12T00:07:48;18.60;99.90
59556;DHT22;45374;52.746;6.304;2023-08-12T00:10:14;18.60;99.90
59556;DHT22;45374;52.746;6.304;2023-08-12T00:12:40;18.60;99.90
59556;DHT22;45374;52.746;6.304;2023-08-12T00:15:06;18.60;99.90
59556;DHT22;45374;52.746;6.304;2023-08-12T00:17:33;18.60;99.90
59556;DHT22;45374;52.746;6.304;2023-08-12T00:20:00;18.60;99.90
59556;DHT22;45374;52.746;6.304;2023-08-12T00:22:26;18.60;99.90
59556;DHT22;45374;52.746;6.304;2023-08-12T00:24:51;18.60;99.90
59556;DHT22;45374;52.746;6.304;2023-08-12T00:27:18;18.50;99.90
59556;DHT22;45374;52.746;6.304;2023-08-12T00:29:44;18.50;99.90
59556;DHT22;45374;52.746;6.304;2023-08-12T00:32:10;18.50;99.90
59556;DHT22;45374;52.746;6.304;2023-08-12T00:34:36;18.50;99.90
59556;DHT22;45374;52.746;6.304;2023-08-12T00:37:01;18.50;99.90
59556;DHT22;45374;52.746;6.304;2023-08-12T00:39:27;18.50;99.90
59556;DHT22;45374;52.746;6.304;2023-08-12T00:41:52;18.50;99.90
59556;DHT22;45374;52.746;6.304;2023-08-12T00:44:18;18.50;99.90
59556;DHT22;45374;52.746;6.304;2023-08-12T00:46:44;18.40;99.90
59556;DHT22;45374;52.746;6.304;2023-08-12T00:49:10;18.50;99.90
59556;DHT22;45374;52.746;6.304;2023-08-12T00:51:39;18.50;99.90
59556;DHT22;45374;52.746;6.304;2023-08-12T00:54:06;18.40;99.90
59556;DHT22;45374;52.746;6.304;2023-08-12T00:56:33;18.40;99.90
59556;DHT22;45374;52.746;6.304;2023-08-12T00:59:01;18.50;99.90
59556;DHT22;45374;52.746;6.304;2023-08-12T01:01:28;18.40;99.90
59556;DHT22;45374;52.746;6.304;2023-08-12T01:03:55;18.40;99.90
59556;DHT22;45374;52.746;6.304;2023-08-12T01:06:21;18.40;99.90
59556;DHT22;45374;52.746;6.304;2023-08-12T01:08:47;18.40;99.90
59556;DHT22;45374;52.746;6.304;2023-08-12T01:11:20;18.40;99.90
59556;DHT22;45374;52.746;6.304;2023-08-12T01:14:28;18.40;99.90
59556;DHT22;45374;52.746;6.304;2023-08-12T01:17:00;18.40;99.90
59556;DHT22;45374;52.746;6.304;2023-08-12T01:19:34;18.40;99.90
59556;DHT22;45374;52.746;6.304;2023-08-12T01:22:04;18.30;99.90
59556;DHT22;45374;52.746;6.304;2023-08-12T01:24:41;18.30;99.90
59556;DHT22;45374;52.746;6.304;2023-08-12T01:27:08;18.30;99.90
59556;DHT22;45374;52.746;6.304;2023-08-12T01:29:37;18.30;99.90
59556;DHT22;45374;52.746;6.304;2023-08-12T01:32:50;18.30;99.90
59556;DHT22;45374;52.746;6.304;2023-08-12T01:35:28;18.20;99.90
59556;DHT22;45374;52.746;6.304;2023-08-12T01:37:57;18.20;99.90
59556;DHT22;45374;52.746;6.304;2023-08-12T01:40:24;18.20;99.90
59556;DHT22;45374;52.746;6.304;2023-08-12T01:42:51;18.20;99.90
59556;DHT22;45374;52.746;6.304;2023-08-12T01:45:18;18.20;99.90
59556;DHT22;45374;52.746;6.304;2023-08-12T01:47:44;18.20;99.90
59556;DHT22;45374;52.746;6.304;2023-08-12T01:50:10;18.20;99.90
59556;DHT22;45374;52.746;6.304;2023-08-12T01:52:35;18.30;99.90
59556;DHT22;45374;52.746;6.304;2023-08-12T01:55:01;18.30;99.90
59556;DHT22;45374;52.746;6.304;2023-08-12T01:57:27;18.30;99.90
59556;DHT22;45374;52.746;6.304;2023-08-12T01:59:53;18.30;99.90
59556;DHT22;45374;52.746;6.304;2023-08-12T02:02:18;18.30;99.90
59556;DHT22;45374;52.746;6.304;2023-08-12T02:04:44;18.30;99.90
59556;DHT22;45374;52.746;6.304;2023-08-12T02:07:10;18.30;99.90
59556;DHT22;45374;52.746;6.304;2023-08-12T02:09:35;18.30;99.90
59556;DHT22;45374;52.746;6.304;2023-08-12T02:12:01;18.30;99.90
59556;DHT22;45374;52.746;6.304;2023-08-12T02:14:26;18.30;99.90
59556;DHT22;45374;52.746;6.304;2023-08-12T02:16:52;18.40;99.90
59556;DHT22;45374;52.746;6.304;2023-08-12T02:19:18;18.40;99.90
59556;DHT22;45374;52.746;6.304;2023-08-12T02:21:43;18.40;99.90
59556;DHT22;45374;52.746;6.304;2023-08-12T02:24:09;18.40;99.90
59556;DHT22;45374;52.746;6.304;2023-08-12T02:26:35;18.40;99.90
59556;DHT22;45374;52.746;6.304;2023-08-12T02:29:00;18.40;99.90
59556;DHT22;45374;52.746;6.304;2023-08-12T02:31:26;18.40;99.90
59556;DHT22;45374;52.746;6.304;2023-08-12T02:33:52;18.40;99.90
59556;DHT22;45374;52.746;6.304;2023-08-12T02:36:17;18.40;99.90
59556;DHT22;45374;52.746;6.304;2023-08-12T02:38:43;18.50;99.90
59556;DHT22;45374;52.746;6.304;2023-08-12T02:41:09;18.50;99.90
59556;DHT22;45374;52.746;6.304;2023-08-12T02:43:34;18.50;99.90
59556;DHT22;45374;52.746;6.304;2023-08-12T02:46:00;18.50;99.90
59556;DHT22;45374;52.746;6.304;2023-08-12T02:48:26;18.50;99.90
59556;DHT22;45374;52.746;6.304;2023-08-12T02:50:51;18.50;99.90
59556;DHT22;45374;52.746;6.304;2023-08-12T02:53:17;18.60;99.90
59556;DHT22;45374;52.746;6.304;2023-08-12T02:55:44;18.60;99.90
59556;DHT22;45374;52.746;6.304;2023-08-12T02:58:10;18.60;99.90
59556;DHT22;45374;52.746;6.304;2023-08-12T03:00:36;18.60;99.90
59556;DHT22;45374;52.746;6.304;2023-08-12T03:03:01;18.60;99.90
59556;DHT22;45374;52.746;6.304;2023-08-12T03:05:27;18.60;99.90
59556;DHT22;45374;52.746;6.304;2023-08-12T03:07:52;18.70;99.90
59556;DHT22;45374;52.746;6.304;2023-08-12T03:10:18;18.70;99.90
59556;DHT22;45374;52.746;6.304;2023-08-12T03:12:44;18.70;99.90
59556;DHT22;45374;52.746;6.304;2023-08-12T03:15:10;18.70;99.90
59556;DHT22;45374;52.746;6.304;2023-08-12T03:17:36;18.70;99.90
59556;DHT22;45374;52.746;6.304;2023-08-12T03:20:05;18.70;99.90
59556;DHT22;45374;52.746;6.304;2023-08-12T03:22:31;18.70;99.90
59556;DHT22;45374;52.746;6.304;2023-08-12T03:24:57;18.70;99.90
59556;DHT22;45374;52.746;6.304;2023-08-12T03:27:22;18.70;99.90
59556;DHT22;45374;52.746;6.304;2023-08-12T03:29:48;18.70;99.90
59556;DHT22;45374;52.746;6.304;2023-08-12T03:32:13;18.70;99.90
59556;DHT22;45374;52.746;6.304;2023-08-12T03:34:39;18.70;99.90
59556;DHT22;45374;52.746;6.304;2023-08-12T03:37:05;18.70;99.90
59556;DHT22;45374;52.746;6.304;2023-08-12T03:39:30;18.70;99.90
59556;DHT22;45374;52.746;6.304;2023-08-12T03:41:56;18.70;99.90
59556;DHT22;45374;52.746;6.304;2023-08-12T03:44:22;18.70;99.90
59556;DHT22;45374;52.746;6.304;2023-08-12T03:46:47;18.80;99.90
59556;DHT22;45374;52.746;6.304;2023-08-12T03:49:13;18.70;99.90
59556;DHT22;45374;52.746;6.304;2023-08-12T03:51:39;18.80;99.90
59556;DHT22;45374;52.746;6.304;2023-08-12T03:54:05;18.80;99.90
59556;DHT22;45374;52.746;6.304;2023-08-12T03:56:30;18.70;99.90
59556;DHT22;45374;52.746;6.304;2023-08-12T03:58:56;18.80;99.90
59556;DHT22;45374;52.746;6.304;2023-08-12T04:01:21;18.80;99.90
59556;DHT22;45374;52.746;6.304;2023-08-12T04:03:47;18.80;99.90
59556;DHT22;45374;52.746;6.304;2023-08-12T04:06:13;18.80;99.90
59556;DHT22;45374;52.746;6.304;2023-08-12T04:08:39;18.80;99.90
59556;DHT22;45374;52.746;6.304;2023-08-12T04:11:04;18.80;99.90
59556;DHT22;45374;52.746;6.304;2023-08-12T04:13:30;18.80;99.90
59556;DHT22;45374;52.746;6.304;2023-08-12T04:15:56;18.80;99.90
59556;DHT22;45374;52.746;6.304;2023-08-12T04:18:22;18.80;99.90
59556;DHT22;45374;52.746;6.304;2023-08-12T04:20:51;18.80;99.90
59556;DHT22;45374;52.746;6.304;2023-08-12T04:23:18;18.80;99.90
59556;DHT22;45374;52.746;6.304;2023-08-12T04:25:44;18.80;99.90
59556;DHT22;45374;52.746;6.304;2023-08-12T04:28:11;18.80;99.90
59556;DHT22;45374;52.746;6.304;2023-08-12T04:30:43;18.80;99.90
59556;DHT22;45374;52.746;6.304;2023-08-12T04:33:09;18.80;99.90
59556;DHT22;45374;52.746;6.304;2023-08-12T04:35:35;18.90;99.90
59556;DHT22;45374;52.746;6.304;2023-08-12T04:38:00;18.90;99.90
59556;DHT22;45374;52.746;6.304;2023-08-12T04:40:26;18.80;99.90
59556;DHT22;45374;52.746;6.304;2023-08-12T04:42:52;18.90;99.90
59556;DHT22;45374;52.746;6.304;2023-08-12T04:45:17;18.90;99.90
59556;DHT22;45374;52.746;6.304;2023-08-12T04:47:43;18.90;99.90
59556;DHT22;45374;52.746;6.304;2023-08-12T04:50:09;18.90;99.90
59556;DHT22;45374;52.746;6.304;2023-08-12T04:52:34;18.90;99.90
59556;DHT22;45374;52.746;6.304;2023-08-12T04:55:00;18.90;99.90
59556;DHT22;45374;52.746;6.304;2023-08-12T04:57:25;18.90;99.90
59556;DHT22;45374;52.746;6.304;2023-08-12T04:59:52;18.90;99.90
59556;DHT22;45374;52.746;6.304;2023-08-12T05:02:18;18.90;99.90
59556;DHT22;45374;52.746;6.304;2023-08-12T05:04:50;18.90;99.90
59556;DHT22;45374;52.746;6.304;2023-08-12T05:07:16;18.90;99.90
59556;DHT22;45374;52.746;6.304;2023-08-12T05:09:42;19.00;99.90
59556;DHT22;45374;52.746;6.304;2023-08-12T05:12:11;19.00;99.90
59556;DHT22;45374;52.746;6.304;2023-08-12T05:14:38;19.10;99.90
59556;DHT22;45374;52.746;6.304;2023-08-12T05:17:05;19.10;99.90
59556;DHT22;45374;52.746;6.304;2023-08-12T05:19:31;19.10;99.90
59556;DHT22;45374;52.746;6.304;2023-08-12T05:21:57;19.20;99.90
59556;DHT22;45374;52.746;6.304;2023-08-12T05:24:23;19.20;99.90
59556;DHT22;45374;52.746;6.304;2023-08-12T05:26:48;19.30;99.90
59556;DHT22;45374;52.746;6.304;2023-08-12T05:29:14;19.40;99.90
59556;DHT22;45374;52.746;6.304;2023-08-12T05:31:39;19.50;99.90
59556;DHT22;45374;52.746;6.304;2023-08-12T05:34:05;19.60;99.90
59556;DHT22;45374;52.746;6.304;2023-08-12T05:36:31;19.70;99.90
59556;DHT22;45374;52.746;6.304;2023-08-12T05:38:56;19.70;99.90
59556;DHT22;45374;52.746;6.304;2023-08-12T05:41:22;19.80;99.90
59556;DHT22;45374;52.746;6.304;2023-08-12T05:43:48;19.80;99.90
59556;DHT22;45374;52.746;6.304;2023-08-12T05:46:14;19.80;99.90
59556;DHT22;45374;52.746;6.304;2023-08-12T05:48:40;19.90;99.90
59556;DHT22;45374;52.746;6.304;2023-08-12T05:51:05;19.90;99.90
59556;DHT22;45374;52.746;6.304;2023-08-12T05:53:31;20.00;99.90
59556;DHT22;45374;52.746;6.304;2023-08-12T05:55:58;20.00;99.90
59556;DHT22;45374;52.746;6.304;2023-08-12T05:58:24;20.00;99.90
59556;DHT22;45374;52.746;6.304;2023-08-12T06:00:49;20.00;99.90
59556;DHT22;45374;52.746;6.304;2023-08-12T06:03:15;20.00;99.90
59556;DHT22;45374;52.746;6.304;2023-08-12T06:05:44;20.00;99.90
59556;DHT22;45374;52.746;6.304;2023-08-12T06:08:10;20.00;99.90
59556;DHT22;45374;52.746;6.304;2023-08-12T06:10:35;20.00;99.90
59556;DHT22;45374;52.746;6.304;2023-08-12T06:13:01;20.00;99.90
59556;DHT22;45374;52.746;6.304;2023-08-12T06:15:27;20.00;99.90
59556;DHT22;45374;52.746;6.304;2023-08-12T06:17:52;20.00;99.90
59556;DHT22;45374;52.746;6.304;2023-08-12T06:20:18;20.00;99.90
59556;DHT22;45374;52.746;6.304;2023-08-12T06:22:43;20.00;99.90
59556;DHT22;45374;52.746;6.304;2023-08-12T06:25:09;20.00;99.90
59556;DHT22;45374;52.746;6.304;2023-08-12T06:27:35;20.10;99.90
59556;DHT22;45374;52.746;6.304;2023-08-12T06:30:00;20.10;99.90
59556;DHT22;45374;52.746;6.304;2023-08-12T06:32:26;20.10;99.90
59556;DHT22;45374;52.746;6.304;2023-08-12T06:34:51;20.20;99.90
59556;DHT22;45374;52.746;6.304;2023-08-12T06:37:17;20.20;99.90
59556;DHT22;45374;52.746;6.304;2023-08-12T06:39:43;20.20;99.90
59556;DHT22;45374;52.746;6.304;2023-08-12T06:42:08;20.20;99.90
59556;DHT22;45374;52.746;6.304;2023-08-12T06:44:34;20.30;99.90
59556;DHT22;45374;52.746;6.304;2023-08-12T06:46:59;20.20;99.90
59556;DHT22;45374;52.746;6.304;2023-08-12T06:49:25;20.20;99.90
59556;DHT22;45374;52.746;6.304;2023-08-12T06:51:50;20.20;99.90
59556;DHT22;45374;52.746;6.304;2023-08-12T06:54:16;20.20;99.90
59556;DHT22;45374;52.746;6.304;2023-08-12T06:56:42;20.20;99.90
59556;DHT22;45374;52.746;6.304;2023-08-12T06:59:07;20.20;99.90
59556;DHT22;45374;52.746;6.304;2023-08-12T07:01:33;20.20;99.90
59556;DHT22;45374;52.746;6.304;2023-08-12T07:03:58;20.20;99.90
59556;DHT22;45374;52.746;6.304;2023-08-12T07:06:24;20.20;99.90
59556;DHT22;45374;52.746;6.304;2023-08-12T07:08:50;20.20;99.90
59556;DHT22;45374;52.746;6.304;2023-08-12T07:11:15;20.20;99.90
59556;DHT22;45374;52.746;6.304;2023-08-12T07:13:41;20.20;99.90
59556;DHT22;45374;52.746;6.304;2023-08-12T07:16:08;20.30;99.90
59556;DHT22;45374;52.746;6.304;2023-08-12T07:18:33;20.30;99.90
59556;DHT22;45374;52.746;6.304;2023-08-12T07:20:59;20.30;99.90
59556;DHT22;45374;52.746;6.304;2023-08-12T07:23:25;20.30;99.90
59556;DHT22;45374;52.746;6.304;2023-08-12T07:25:51;20.30;99.90
59556;DHT22;45374;52.746;6.304;2023-08-12T07:28:16;20.30;99.90
59556;DHT22;45374;52.746;6.304;2023-08-12T07:30:42;20.30;99.90
59556;DHT22;45374;52.746;6.304;2023-08-12T07:33:07;20.30;99.90
59556;DHT22;45374;52.746;6.304;2023-08-12T07:35:33;20.30;99.90
59556;DHT22;45374;52.746;6.304;2023-08-12T07:37:59;20.30;99.90
59556;DHT22;45374;52.746;6.304;2023-08-12T07:40:24;20.30;99.90
59556;DHT22;45374;52.746;6.304;2023-08-12T07:42:50;20.30;99.90
59556;DHT22;45374;52.746;6.304;2023-08-12T07:45:16;20.30;99.90
59556;DHT22;45374;52.746;6.304;2023-08-12T07:47:41;20.30;99.90
59556;DHT22;45374;52.746;6.304;2023-08-12T07:50:07;20.20;99.90
59556;DHT22;45374;52.746;6.304;2023-08-12T07:52:33;20.20;99.90
59556;DHT22;45374;52.746;6.304;2023-08-12T07:54:58;20.20;99.90
59556;DHT22;45374;52.746;6.304;2023-08-12T07:57:24;20.20;99.90
59556;DHT22;45374;52.746;6.304;2023-08-12T07:59:50;20.20;99.90
59556;DHT22;45374;52.746;6.304;2023-08-12T08:02:16;20.20;99.90
59556;DHT22;45374;52.746;6.304;2023-08-12T08:04:42;20.20;99.90
59556;DHT22;45374;52.746;6.304;2023-08-12T08:07:08;20.20;99.90
59556;DHT22;45374;52.746;6.304;2023-08-12T08:09:34;20.10;99.90
59556;DHT22;45374;52.746;6.304;2023-08-12T08:12:00;20.10;99.90
59556;DHT22;45374;52.746;6.304;2023-08-12T08:14:26;20.10;99.90
59556;DHT22;45374;52.746;6.304;2023-08-12T08:16:53;20.10;99.90
59556;DHT22;45374;52.746;6.304;2023-08-12T08:19:18;20.10;99.90
59556;DHT22;45374;52.746;6.304;2023-08-12T08:21:44;20.10;99.90
59556;DHT22;45374;52.746;6.304;2023-08-12T08:24:10;20.10;99.90
59556;DHT22;45374;52.746;6.304;2023-08-12T08:26:38;20.00;99.90
59556;DHT22;45374;52.746;6.304;2023-08-12T08:29:06;20.00;99.90
59556;DHT22;45374;52.746;6.304;2023-08-12T08:31:31;20.00;99.90
59556;DHT22;45374;52.746;6.304;2023-08-12T08:33:57;20.00;99.90
59556;DHT22;45374;52.746;6.304;2023-08-12T08:36:22;19.90;99.90
59556;DHT22;45374;52.746;6.304;2023-08-12T08:38:48;19.90;99.90
59556;DHT22;45374;52.746;6.304;2023-08-12T08:41:16;19.80;99.90
59556;DHT22;45374;52.746;6.304;2023-08-12T08:43:42;19.90;99.90
59556;DHT22;45374;52.746;6.304;2023-08-12T08:46:14;19.90;99.90
59556;DHT22;45374;52.746;6.304;2023-08-12T08:48:41;19.90;99.90
59556;DHT22;45374;52.746;6.304;2023-08-12T08:51:09;19.80;99.90
59556;DHT22;45374;52.746;6.304;2023-08-12T08:53:39;19.80;99.90
59556;DHT22;45374;52.746;6.304;2023-08-12T08:56:05;19.80;99.90
59556;DHT22;45374;52.746;6.304;2023-08-12T08:58:32;19.80;99.90
59556;DHT22;45374;52.746;6.304;2023-08-12T09:00:57;19.80;99.90
59556;DHT22;45374;52.746;6.304;2023-08-12T09:03:24;19.80;99.90
59556;DHT22;45374;52.746;6.304;2023-08-12T09:05:52;19.70;99.90
59556;DHT22;45374;52.746;6.304;2023-08-12T09:08:18;19.80;99.90
59556;DHT22;45374;52.746;6.304;2023-08-12T09:10:44;19.80;99.90
59556;DHT22;45374;52.746;6.304;2023-08-12T09:13:11;19.80;99.90
59556;DHT22;45374;52.746;6.304;2023-08-12T09:15:37;19.80;99.90
59556;DHT22;45374;52.746;6.304;2023-08-12T09:18:05;19.80;99.90
59556;DHT22;45374;52.746;6.304;2023-08-12T09:20:32;19.80;99.90
59556;DHT22;45374;52.746;6.304;2023-08-12T09:22:59;19.80;99.90
59556;DHT22;45374;52.746;6.304;2023-08-12T09:25:26;19.80;99.90
59556;DHT22;45374;52.746;6.304;2023-08-12T09:27:54;19.80;99.90
59556;DHT22;45374;52.746;6.304;2023-08-12T09:30:22;19.80;99.90
59556;DHT22;45374;52.746;6.304;2023-08-12T09:33:02;19.70;99.90
59556;DHT22;45374;52.746;6.304;2023-08-12T09:35:40;19.80;99.90
59556;DHT22;45374;52.746;6.304;2023-08-12T09:38:07;19.70;99.90
59556;DHT22;45374;52.746;6.304;2023-08-12T09:40:34;19.80;99.90
59556;DHT22;45374;52.746;6.304;2023-08-12T09:43:01;19.80;99.90
59556;DHT22;45374;52.746;6.304;2023-08-12T09:45:27;19.70;99.90
59556;DHT22;45374;52.746;6.304;2023-08-12T09:47:54;19.80;99.90
59556;DHT22;45374;52.746;6.304;2023-08-12T09:50:27;19.80;99.90
59556;DHT22;45374;52.746;6.304;2023-08-12T09:52:54;19.80;99.90
59556;DHT22;45374;52.746;6.304;2023-08-12T09:55:24;19.80;99.90
59556;DHT22;45374;52.746;6.304;2023-08-12T09:57:54;19.80;99.90
59556;DHT22;45374;52.746;6.304;2023-08-12T10:00:21;19.90;99.90
59556;DHT22;45374;52.746;6.304;2023-08-12T10:02:49;19.90;99.90
59556;DHT22;45374;52.746;6.304;2023-08-12T10:05:27;19.90;99.90
59556;DHT22;45374;52.746;6.304;2023-08-12T10:07:54;20.00;99.90
59556;DHT22;45374;52.746;6.304;2023-08-12T10:10:21;20.00;99.90
59556;DHT22;45374;52.746;6.304;2023-08-12T10:12:48;20.00;99.90
59556;DHT22;45374;52.746;6.304;2023-08-12T10:15:14;20.00;99.90
59556;DHT22;45374;52.746;6.304;2023-08-12T10:17:43;20.00;99.90
59556;DHT22;45374;52.746;6.304;2023-08-12T10:20:13;20.00;99.90
59556;DHT22;45374;52.746;6.304;2023-08-12T10:22:40;19.90;99.90
59556;DHT22;45374;52.746;6.304;2023-08-12T10:25:07;19.90;99.90
59556;DHT22;45374;52.746;6.304;2023-08-12T10:27:37;19.80;99.90
59556;DHT22;45374;52.746;6.304;2023-08-12T10:30:04;19.90;99.90
59556;DHT22;45374;52.746;6.304;2023-08-12T10:32:31;19.80;99.90
59556;DHT22;45374;52.746;6.304;2023-08-12T10:34:58;19.80;99.90
59556;DHT22;45374;52.746;6.304;2023-08-12T10:37:27;19.80;99.90
59556;DHT22;45374;52.746;6.304;2023-08-12T10:39:56;19.90;99.90
59556;DHT22;45374;52.746;6.304;2023-08-12T10:42:42;19.90;99.90
59556;DHT22;45374;52.746;6.304;2023-08-12T10:45:08;19.90;99.90
59556;DHT22;45374;52.746;6.304;2023-08-12T10:50:48;20.00;99.90
59556;DHT22;45374;52.746;6.304;2023-08-12T10:53:25;20.30;99.90
59556;DHT22;45374;52.746;6.304;2023-08-12T10:55:56;20.30;99.90
59556;DHT22;45374;52.746;6.304;2023-08-12T10:58:40;20.40;99.90
59556;DHT22;45374;52.746;6.304;2023-08-12T11:01:13;20.40;99.90
59556;DHT22;45374;52.746;6.304;2023-08-12T11:03:42;20.50;99.90
59556;DHT22;45374;52.746;6.304;2023-08-12T11:06:10;20.40;99.90
59556;DHT22;45374;52.746;6.304;2023-08-12T11:08:35;20.40;99.90
59556;DHT22;45374;52.746;6.304;2023-08-12T11:11:02;20.40;99.90
59556;DHT22;45374;52.746;6.304;2023-08-12T11:13:28;20.50;99.90
59556;DHT22;45374;52.746;6.304;2023-08-12T11:16:06;20.40;99.90
59556;DHT22;45374;52.746;6.304;2023-08-12T11:18:33;20.40;99.90
59556;DHT22;45374;52.746;6.304;2023-08-12T11:20:58;20.40;99.90
59556;DHT22;45374;52.746;6.304;2023-08-12T11:23:24;20.40;99.90
59556;DHT22;45374;52.746;6.304;2023-08-12T11:25:50;20.30;99.90
59556;DHT22;45374;52.746;6.304;2023-08-12T11:28:18;20.30;99.90
59556;DHT22;45374;52.746;6.304;2023-08-12T11:30:45;20.30;99.90
59556;DHT22;45374;52.746;6.304;2023-08-12T11:33:11;20.00;99.90
59556;DHT22;45374;52.746;6.304;2023-08-12T11:35:37;19.70;99.90
59556;DHT22;45374;52.746;6.304;2023-08-12T11:38:05;19.30;99.90
59556;DHT22;45374;52.746;6.304;2023-08-12T11:40:31;19.10;99.90
59556;DHT22;45374;52.746;6.304;2023-08-12T11:42:56;18.80;99.90
59556;DHT22;45374;52.746;6.304;2023-08-12T11:45:24;18.80;99.90
59556;DHT22;45374;52.746;6.304;2023-08-12T11:47:50;18.80;99.90
59556;DHT22;45374;52.746;6.304;2023-08-12T11:50:22;18.80;99.90
59556;DHT22;45374;52.746;6.304;2023-08-12T11:52:48;18.90;99.90
59556;DHT22;45374;52.746;6.304;2023-08-12T11:55:15;19.10;99.90
59556;DHT22;45374;52.746;6.304;2023-08-12T11:57:41;19.20;99.90
59556;DHT22;45374;52.746;6.304;2023-08-12T12:00:08;19.50;99.90
59556;DHT22;45374;52.746;6.304;2023-08-12T12:02:41;19.70;99.90
59556;DHT22;45374;52.746;6.304;2023-08-12T12:05:10;19.50;99.90
59556;DHT22;45374;52.746;6.304;2023-08-12T12:07:36;19.40;99.90
59556;DHT22;45374;52.746;6.304;2023-08-12T12:10:02;19.40;99.90
59556;DHT22;45374;52.746;6.304;2023-08-12T12:12:28;19.40;99.90
59556;DHT22;45374;52.746;6.304;2023-08-12T12:14:55;19.40;99.90
59556;DHT22;45374;52.746;6.304;2023-08-12T12:17:24;19.50;99.90
59556;DHT22;45374;52.746;6.304;2023-08-12T12:19:57;19.60;99.90
59556;DHT22;45374;52.746;6.304;2023-08-12T12:22:30;19.60;99.90
59556;DHT22;45374;52.746;6.304;2023-08-12T12:24:59;19.60;99.90
59556;DHT22;45374;52.746;6.304;2023-08-12T12:27:27;19.80;99.90
59556;DHT22;45374;52.746;6.304;2023-08-12T12:29:53;20.00;99.90
59556;DHT22;45374;52.746;6.304;2023-08-12T12:32:20;20.10;99.90
59556;DHT22;45374;52.746;6.304;2023-08-12T12:34:46;20.20;99.90
59556;DHT22;45374;52.746;6.304;2023-08-12T12:37:15;20.10;99.90
59556;DHT22;45374;52.746;6.304;2023-08-12T12:39:41;20.10;99.90
59556;DHT22;45374;52.746;6.304;2023-08-12T12:42:07;20.20;99.90
59556;DHT22;45374;52.746;6.304;2023-08-12T12:44:33;20.40;99.90
59556;DHT22;45374;52.746;6.304;2023-08-12T12:46:58;20.50;99.90
59556;DHT22;45374;52.746;6.304;2023-08-12T12:49:24;20.50;99.90
59556;DHT22;45374;52.746;6.304;2023-08-12T12:51:50;20.50;99.90
59556;DHT22;45374;52.746;6.304;2023-08-12T12:54:17;20.60;99.90
59556;DHT22;45374;52.746;6.304;2023-08-12T12:56:43;20.70;99.90
59556;DHT22;45374;52.746;6.304;2023-08-12T12:59:08;20.90;99.90
59556;DHT22;45374;52.746;6.304;2023-08-12T13:01:34;21.00;99.90
59556;DHT22;45374;52.746;6.304;2023-08-12T13:03:59;21.00;99.90
59556;DHT22;45374;52.746;6.304;2023-08-12T13:06:25;21.10;99.90
59556;DHT22;45374;52.746;6.304;2023-08-12T13:08:51;21.20;99.90
59556;DHT22;45374;52.746;6.304;2023-08-12T13:11:16;21.20;99.90
59556;DHT22;45374;52.746;6.304;2023-08-12T13:13:42;21.20;99.90
59556;DHT22;45374;52.746;6.304;2023-08-12T13:16:08;21.30;99.90
59556;DHT22;45374;52.746;6.304;2023-08-12T13:18:34;21.40;99.90
59556;DHT22;45374;52.746;6.304;2023-08-12T13:20:59;21.50;99.90
59556;DHT22;45374;52.746;6.304;2023-08-12T13:23:26;21.50;99.90
59556;DHT22;45374;52.746;6.304;2023-08-12T13:25:51;21.70;99.90
59556;DHT22;45374;52.746;6.304;2023-08-12T13:28:17;21.60;99.90
59556;DHT22;45374;52.746;6.304;2023-08-12T13:30:44;21.70;99.90
59556;DHT22;45374;52.746;6.304;2023-08-12T13:33:09;21.80;99.90
59556;DHT22;45374;52.746;6.304;2023-08-12T13:35:35;21.80;99.90
59556;DHT22;45374;52.746;6.304;2023-08-12T13:38:01;21.80;99.90
59556;DHT22;45374;52.746;6.304;2023-08-12T13:40:27;21.80;99.90
59556;DHT22;45374;52.746;6.304;2023-08-12T13:42:59;21.70;99.90
59556;DHT22;45374;52.746;6.304;2023-08-12T13:45:25;21.80;99.90
59556;DHT22;45374;52.746;6.304;2023-08-12T13:47:51;21.90;99.90
59556;DHT22;45374;52.746;6.304;2023-08-12T13:50:17;21.90;99.90
59556;DHT22;45374;52.746;6.304;2023-08-12T13:52:44;21.90;99.90
59556;DHT22;45374;52.746;6.304;2023-08-12T13:55:12;21.90;99.90
59556;DHT22;45374;52.746;6.304;2023-08-12T13:57:37;22.00;99.90
59556;DHT22;45374;52.746;6.304;2023-08-12T14:00:03;22.10;99.90
59556;DHT22;45374;52.746;6.304;2023-08-12T14:02:37;22.10;99.90
59556;DHT22;45374;52.746;6.304;2023-08-12T14:05:03;22.20;99.90
59556;DHT22;45374;52.746;6.304;2023-08-12T14:07:30;22.20;99.90
59556;DHT22;45374;52.746;6.304;2023-08-12T14:10:12;22.20;99.90
59556;DHT22;45374;52.746;6.304;2023-08-12T14:12:38;22.00;99.90
59556;DHT22;45374;52.746;6.304;2023-08-12T14:15:03;21.80;99.90
59556;DHT22;45374;52.746;6.304;2023-08-12T14:17:29;21.80;99.90
59556;DHT22;45374;52.746;6.304;2023-08-12T14:19:55;21.90;99.90
59556;DHT22;45374;52.746;6.304;2023-08-12T14:22:21;21.90;99.90
59556;DHT22;45374;52.746;6.304;2023-08-12T14:24:47;22.00;99.90
59556;DHT22;45374;52.746;6.304;2023-08-12T14:27:14;22.10;99.90
59556;DHT22;45374;52.746;6.304;2023-08-12T14:29:41;22.30;99.90
59556;DHT22;45374;52.746;6.304;2023-08-12T14:32:07;22.40;99.90
59556;DHT22;45374;52.746;6.304;2023-08-12T14:34:32;22.50;99.90
59556;DHT22;45374;52.746;6.304;2023-08-12T14:36:58;22.40;99.90
59556;DHT22;45374;52.746;6.304;2023-08-12T14:39:24;22.40;99.90
59556;DHT22;45374;52.746;6.304;2023-08-12T14:41:50;22.60;99.90
59556;DHT22;45374;52.746;6.304;2023-08-12T14:44:15;22.70;99.90
59556;DHT22;45374;52.746;6.304;2023-08-12T14:46:41;22.80;99.90
59556;DHT22;45374;52.746;6.304;2023-08-12T14:49:07;22.70;99.90
59556;DHT22;45374;52.746;6.304;2023-08-12T14:51:37;22.70;99.90
59556;DHT22;45374;52.746;6.304;2023-08-12T14:54:22;22.70;99.90
59556;DHT22;45374;52.746;6.304;2023-08-12T14:56:48;22.70;99.90
59556;DHT22;45374;52.746;6.304;2023-08-12T14:59:13;22.70;99.90
59556;DHT22;45374;52.746;6.304;2023-08-12T15:01:39;22.60;99.90
59556;DHT22;45374;52.746;6.304;2023-08-12T15:04:04;22.70;99.90
59556;DHT22;45374;52.746;6.304;2023-08-12T15:06:30;22.60;99.90
59556;DHT22;45374;52.746;6.304;2023-08-12T15:08:56;22.50;99.90
59556;DHT22;45374;52.746;6.304;2023-08-12T15:11:21;22.50;99.90
59556;DHT22;45374;52.746;6.304;2023-08-12T15:13:48;22.40;99.90
59556;DHT22;45374;52.746;6.304;2023-08-12T15:16:13;22.40;99.90
59556;DHT22;45374;52.746;6.304;2023-08-12T15:18:39;22.40;99.90
59556;DHT22;45374;52.746;6.304;2023-08-12T15:21:04;22.40;99.90
59556;DHT22;45374;52.746;6.304;2023-08-12T15:23:30;22.50;99.90
59556;DHT22;45374;52.746;6.304;2023-08-12T15:25:56;22.50;99.90
59556;DHT22;45374;52.746;6.304;2023-08-12T15:28:21;22.50;99.90
59556;DHT22;45374;52.746;6.304;2023-08-12T15:30:48;22.50;99.90